createdAt,value
2022-10-11T00:00:44.118Z,13.71
2022-10-11T00:03:16.350Z,13.70
2022-10-11T00:05:54.971Z,13.66
2022-10-11T00:08:22.745Z,13.65
2022-10-11T00:11:06.565Z,13.60
2022-10-11T00:13:34.181Z,13.59
2022-10-11T00:16:07.058Z,13.55
2022-10-11T00:18:38.230Z,13.50
2022-10-11T00:21:38.279Z,13.49
2022-10-11T00:24:48.867Z,13.44
2022-10-11T00:27:49.050Z,13.41
2022-10-11T00:30:47.460Z,13.34
2022-10-11T00:33:34.423Z,13.31
2022-10-11T00:36:26.975Z,13.30
2022-10-11T00:38:53.783Z,13.25
2022-10-11T00:41:20.724Z,13.24
2022-10-11T00:43:47.603Z,13.25
2022-10-11T00:46:30.444Z,13.23
2022-10-11T00:49:06.980Z,13.21
2022-10-11T00:51:43.300Z,13.17
2022-10-11T00:54:17.478Z,13.13
2022-10-11T00:56:58.745Z,13.10
2022-10-11T00:59:34.743Z,13.11
2022-10-11T01:02:05.678Z,13.08
2022-10-11T01:04:34.059Z,13.08
2022-10-11T01:07:02.427Z,13.08
2022-10-11T01:09:30.395Z,13.04
2022-10-11T01:12:02.543Z,13.03
2022-10-11T01:14:59.297Z,13.02
2022-10-11T01:17:54.676Z,12.97
2022-10-11T01:20:46.063Z,12.93
2022-10-11T01:23:49.609Z,12.90
2022-10-11T01:26:55.561Z,12.87
2022-10-11T01:29:53.697Z,12.84
2022-10-11T01:32:36.632Z,12.82
2022-10-11T01:35:28.329Z,12.82
2022-10-11T01:38:26.786Z,12.80
2022-10-11T01:41:21.503Z,12.74
2022-10-11T01:43:55.387Z,12.70
2022-10-11T01:46:23.897Z,12.68
2022-10-11T01:48:56.339Z,12.65
2022-10-11T01:51:29.661Z,12.62
2022-10-11T01:55:03.923Z,12.60
2022-10-11T01:58:22.233Z,12.49
2022-10-11T02:01:08.679Z,12.41
2022-10-11T02:03:52.534Z,12.38
2022-10-11T02:06:59.365Z,12.35
2022-10-11T02:09:48.065Z,12.28
2022-10-11T02:12:30.435Z,12.27
2022-10-11T02:15:01.604Z,12.26
2022-10-11T02:17:36.611Z,12.25
2022-10-11T02:20:12.586Z,12.23
2022-10-11T02:22:45.908Z,12.20
2022-10-11T02:25:21.259Z,12.20
2022-10-11T02:27:51.718Z,12.18
2022-10-11T02:30:18.837Z,12.17
2022-10-11T02:32:48.087Z,12.15
2022-10-11T02:35:15.272Z,12.15
2022-10-11T02:38:09.915Z,12.11
2022-10-11T02:40:42.628Z,12.10
2022-10-11T02:43:24.082Z,12.08
2022-10-11T02:45:57.704Z,12.03
2022-10-11T02:48:28.462Z,12.01
2022-10-11T02:50:59.466Z,12.02
2022-10-11T02:53:27.187Z,11.99
2022-10-11T02:55:55.924Z,12.01
2022-10-11T02:58:24.771Z,11.99
2022-10-11T03:00:51.931Z,12.00
2022-10-11T03:03:18.814Z,11.96
2022-10-11T03:05:47.682Z,11.99
2022-10-11T03:08:16.397Z,11.98
2022-10-11T03:10:43.506Z,11.99
2022-10-11T03:13:11.454Z,11.99
2022-10-11T03:15:40.774Z,11.99
2022-10-11T03:18:07.569Z,11.98
2022-10-11T03:20:34.780Z,12.01
2022-10-11T03:23:01.496Z,12.02
2022-10-11T03:25:28.726Z,12.01
2022-10-11T03:27:55.505Z,12.00
2022-10-11T03:30:22.302Z,12.00
2022-10-11T03:32:49.115Z,11.99
2022-10-11T03:35:16.118Z,11.97
2022-10-11T03:37:42.911Z,11.98
2022-10-11T03:40:11.425Z,11.97
2022-10-11T03:42:38.774Z,11.95
2022-10-11T03:45:08.875Z,11.95
2022-10-11T03:47:38.659Z,11.94
2022-10-11T03:50:08.857Z,11.93
2022-10-11T03:52:36.692Z,11.91
2022-10-11T03:55:04.347Z,11.91
2022-10-11T03:57:31.083Z,11.90
2022-10-11T03:59:57.814Z,11.89
2022-10-11T04:02:24.713Z,11.87
2022-10-11T04:04:51.439Z,11.83
2022-10-11T04:07:18.627Z,11.82
2022-10-11T04:09:45.415Z,11.79
2022-10-11T04:12:12.741Z,11.75
2022-10-11T04:14:39.524Z,11.74
2022-10-11T04:17:06.515Z,11.73
2022-10-11T04:19:33.269Z,11.73
2022-10-11T04:22:00.028Z,11.68
2022-10-11T04:24:28.141Z,11.64
2022-10-11T04:26:55.107Z,11.62
2022-10-11T04:29:21.992Z,11.60
2022-10-11T04:31:49.004Z,11.59
2022-10-11T04:34:16.377Z,11.56
2022-10-11T04:36:48.987Z,11.54
2022-10-11T04:39:16.876Z,11.49
2022-10-11T04:41:43.771Z,11.47
2022-10-11T04:44:10.493Z,11.44
2022-10-11T04:46:37.263Z,11.41
2022-10-11T04:49:04.061Z,11.37
2022-10-11T04:51:30.981Z,11.35
2022-10-11T04:53:57.760Z,11.30
2022-10-11T04:56:24.607Z,11.27
2022-10-11T04:58:54.115Z,11.24
2022-10-11T05:01:21.602Z,11.20
2022-10-11T05:03:48.866Z,11.19
2022-10-11T05:06:15.673Z,11.16
2022-10-11T05:08:42.519Z,11.12
2022-10-11T05:11:15.686Z,11.12
2022-10-11T05:13:44.137Z,11.09
2022-10-11T05:16:12.390Z,11.05
2022-10-11T05:18:40.110Z,11.05
2022-10-11T05:21:16.009Z,11.05
2022-10-11T05:23:42.959Z,11.02
2022-10-11T05:26:10.655Z,11.03
2022-10-11T05:28:37.607Z,11.01
2022-10-11T05:31:06.439Z,11.00
2022-10-11T05:33:51.322Z,10.98
2022-10-11T05:36:18.424Z,10.97
2022-10-11T05:38:45.272Z,10.99
2022-10-11T05:41:14.997Z,10.98
2022-10-11T05:43:42.515Z,10.97
2022-10-11T05:46:09.654Z,10.98
2022-10-11T05:48:36.923Z,10.98
2022-10-11T05:51:10.713Z,10.98
2022-10-11T05:53:49.597Z,10.97
2022-10-11T05:56:26.175Z,10.94
2022-10-11T05:59:02.702Z,10.95
2022-10-11T06:01:35.011Z,10.94
2022-10-11T06:04:01.851Z,10.97
2022-10-11T06:06:28.682Z,10.97
2022-10-11T06:08:55.666Z,11.01
2022-10-11T06:11:26.745Z,11.06
2022-10-11T06:13:58.204Z,11.12
2022-10-11T06:16:25.889Z,11.25
2022-10-11T06:18:54.774Z,11.39
2022-10-11T06:21:22.442Z,11.61
2022-10-11T06:23:58.360Z,11.84
2022-10-11T06:26:28.853Z,12.16
2022-10-11T06:28:55.736Z,12.52
2022-10-11T06:31:23.165Z,12.95
2022-10-11T06:33:50.037Z,13.43
2022-10-11T06:36:17.753Z,13.98
2022-10-11T06:38:45.474Z,14.51
2022-10-11T06:41:32.686Z,15.16
2022-10-11T06:43:59.542Z,15.75
2022-10-11T06:46:28.080Z,16.37
2022-10-11T06:48:56.327Z,16.99
2022-10-11T06:51:24.489Z,17.59
2022-10-11T06:53:55.411Z,18.18
2022-10-11T06:56:22.882Z,18.75
2022-10-11T06:58:51.059Z,19.31
2022-10-11T07:01:21.378Z,19.91
2022-10-11T07:03:49.386Z,20.47
2022-10-11T07:06:22.664Z,20.96
2022-10-11T07:08:49.729Z,21.45
2022-10-11T07:11:23.034Z,22.00
2022-10-11T07:13:52.821Z,22.57
2022-10-11T07:16:20.808Z,23.04
2022-10-11T07:18:53.832Z,23.52
2022-10-11T07:21:24.323Z,23.98
2022-10-11T07:23:51.130Z,24.42
2022-10-11T07:26:18.526Z,24.89
2022-10-11T07:28:45.469Z,25.31
2022-10-11T07:31:19.736Z,25.75
2022-10-11T07:33:46.957Z,26.17
2022-10-11T07:36:14.534Z,26.60
2022-10-11T07:38:44.165Z,27.03
2022-10-11T07:41:11.531Z,27.46
2022-10-11T07:43:39.864Z,27.95
2022-10-11T07:46:07.517Z,28.42
2022-10-11T07:48:36.454Z,28.90
2022-10-11T07:51:16.512Z,29.35
2022-10-11T07:53:48.100Z,29.71
2022-10-11T07:56:22.245Z,29.95
2022-10-11T07:58:56.157Z,30.23
2022-10-11T08:01:24.238Z,30.57
2022-10-11T08:03:52.306Z,30.92
2022-10-11T08:06:23.074Z,31.29
2022-10-11T08:08:50.086Z,31.63
2022-10-11T08:11:27.387Z,31.97
2022-10-11T08:14:13.107Z,32.27
2022-10-11T08:16:43.229Z,32.53
2022-10-11T08:19:18.475Z,32.91
2022-10-11T08:21:45.672Z,33.26
2022-10-11T08:24:15.607Z,33.59
2022-10-11T08:26:42.497Z,33.84
2022-10-11T08:29:10.698Z,33.95
2022-10-11T08:31:37.520Z,33.99
2022-10-11T08:34:04.665Z,34.15
2022-10-11T08:36:31.518Z,34.36
2022-10-11T08:39:00.543Z,34.62
2022-10-11T08:41:40.850Z,34.82
2022-10-11T08:45:09.669Z,34.97
2022-10-11T08:47:44.103Z,35.21
2022-10-11T08:50:23.158Z,35.32
2022-10-11T08:53:05.791Z,35.42
2022-10-11T08:55:44.889Z,35.52
2022-10-11T08:58:22.084Z,35.65
2022-10-11T09:00:55.566Z,35.79
2022-10-11T09:03:45.957Z,35.93
2022-10-11T09:06:47.618Z,36.05
2022-10-11T09:09:23.682Z,36.17
2022-10-11T09:12:03.237Z,36.13
2022-10-11T09:14:44.593Z,36.08
2022-10-11T09:17:32.291Z,36.00
2022-10-11T09:20:33.722Z,35.98
2022-10-11T09:23:31.297Z,36.07
2022-10-11T09:26:28.815Z,36.28
2022-10-11T09:29:40.568Z,36.53
2022-10-11T09:32:16.977Z,36.78
2022-10-11T09:34:44.220Z,37.03
2022-10-11T09:37:25.348Z,37.21
2022-10-11T09:40:19.951Z,37.23
2022-10-11T09:42:46.716Z,37.30
2022-10-11T09:45:21.818Z,37.21
2022-10-11T09:47:52.307Z,37.08
2022-10-11T09:50:25.743Z,37.00
2022-10-11T09:52:56.621Z,36.78
2022-10-11T09:55:40.564Z,36.55
2022-10-11T09:58:34.547Z,36.21
2022-10-11T10:01:22.300Z,35.99
2022-10-11T10:04:16.818Z,35.66
2022-10-11T10:06:43.754Z,35.37
2022-10-11T10:09:30.965Z,35.02
2022-10-11T10:11:58.156Z,34.95
2022-10-11T10:14:30.509Z,34.99
2022-10-11T10:17:03.692Z,35.05
2022-10-11T10:19:44.759Z,34.93
2022-10-11T10:22:27.319Z,34.65
2022-10-11T10:24:56.148Z,34.42
2022-10-11T10:27:29.593Z,34.19
2022-10-11T10:30:09.906Z,34.02
2022-10-11T10:32:58.353Z,33.92
2022-10-11T10:35:43.211Z,33.74
2022-10-11T10:38:26.200Z,33.45
2022-10-11T10:41:02.811Z,33.23
2022-10-11T10:43:35.595Z,33.06
2022-10-11T10:46:38.819Z,32.77
2022-10-11T10:53:23.926Z,31.82
2022-10-11T10:56:27.383Z,31.25
2022-10-11T10:59:03.029Z,30.81
2022-10-11T11:01:38.636Z,30.48
2022-10-11T11:04:35.166Z,30.19
2022-10-11T11:07:33.791Z,30.07
2022-10-11T11:10:24.696Z,30.00
2022-10-11T11:13:37.574Z,29.86
2022-10-11T11:16:18.733Z,29.58
2022-10-11T11:19:39.945Z,29.05
2022-10-11T11:22:32.743Z,28.61
2022-10-11T11:25:48.559Z,28.23
2022-10-11T11:29:11.303Z,28.02
2022-10-11T11:31:59.689Z,27.73
2022-10-11T11:34:34.044Z,27.34
2022-10-11T11:37:10.526Z,26.96
2022-10-11T11:39:48.963Z,26.64
2022-10-11T11:42:34.057Z,26.29
2022-10-11T11:45:18.783Z,25.97
2022-10-11T11:47:57.130Z,25.74
2022-10-11T11:50:27.933Z,25.50
2022-10-11T11:53:05.346Z,25.23
2022-10-11T11:55:52.678Z,24.86
2022-10-11T11:58:45.607Z,24.44
2022-10-11T12:01:26.506Z,24.20
2022-10-11T12:04:03.330Z,23.90
2022-10-11T12:06:37.942Z,23.67
2022-10-11T12:09:22.741Z,23.44
2022-10-11T12:11:59.900Z,23.23
2022-10-11T12:14:47.044Z,22.92
2022-10-11T12:17:23.691Z,22.64
2022-10-11T12:20:28.631Z,22.30
2022-10-11T12:23:30.476Z,22.05
2022-10-11T12:26:27.820Z,21.88
2022-10-11T12:29:24.548Z,21.71
2022-10-11T12:32:00.797Z,21.63
2022-10-11T12:34:43.804Z,21.54
2022-10-11T12:37:19.688Z,21.48
2022-10-11T12:39:54.522Z,21.41
2022-10-11T12:42:26.944Z,21.38
2022-10-11T12:45:12.236Z,21.27
2022-10-11T12:48:05.071Z,21.17
2022-10-11T12:51:22.844Z,21.07
2022-10-11T12:54:37.404Z,20.97
2022-10-11T12:57:27.115Z,20.89
2022-10-11T12:59:54.029Z,20.85
2022-10-11T13:02:39.766Z,20.81
2022-10-11T13:05:22.223Z,20.74
2022-10-11T13:07:50.747Z,20.70
2022-10-11T13:10:28.975Z,20.64
2022-10-11T13:12:59.673Z,20.55
2022-10-11T13:15:28.215Z,20.46
2022-10-11T13:18:00.505Z,20.39
2022-10-11T13:20:36.141Z,20.33
2022-10-11T13:23:35.816Z,20.20
2022-10-11T13:26:03.349Z,20.15
2022-10-11T13:28:36.170Z,20.11
2022-10-11T13:31:05.426Z,20.06
2022-10-11T13:33:38.095Z,20.02
2022-10-11T13:36:14.661Z,19.97
2022-10-11T13:38:41.408Z,19.90
2022-10-11T13:41:10.454Z,19.85
2022-10-11T13:43:38.653Z,19.79
2022-10-11T13:46:05.958Z,19.72
2022-10-11T13:48:40.926Z,19.70
2022-10-11T13:51:33.460Z,19.60
2022-10-11T13:54:11.610Z,19.54
2022-10-11T13:56:50.968Z,19.52
2022-10-11T13:59:32.737Z,19.51
2022-10-11T14:02:04.222Z,19.48
2022-10-11T14:04:41.063Z,19.46
2022-10-11T14:07:31.572Z,19.39
2022-10-11T14:09:58.513Z,19.36
2022-10-11T14:12:33.071Z,19.35
2022-10-11T14:15:02.486Z,19.30
2022-10-11T14:17:43.263Z,19.24
2022-10-11T14:20:28.296Z,19.21
2022-10-11T14:22:57.936Z,19.18
2022-10-11T14:25:24.763Z,19.18
2022-10-11T14:27:51.933Z,19.16
2022-10-11T14:30:26.033Z,19.14
2022-10-11T14:32:57.578Z,19.09
2022-10-11T14:35:28.964Z,19.08
2022-10-11T14:37:56.175Z,19.03
2022-10-11T14:40:27.948Z,18.97
2022-10-11T14:42:55.108Z,18.88
2022-10-11T14:45:21.913Z,18.82
2022-10-11T14:47:49.880Z,18.76
2022-10-11T14:50:44.435Z,18.67
2022-10-11T14:53:12.183Z,18.60
2022-10-11T14:55:40.910Z,18.57
2022-10-11T14:58:10.111Z,18.55
2022-10-11T15:00:37.756Z,18.53
2022-10-11T15:03:07.082Z,18.50
2022-10-11T15:05:35.525Z,18.47
2022-10-11T15:08:04.898Z,18.47
2022-10-11T15:10:40.383Z,18.42
2022-10-11T15:13:08.247Z,18.37
2022-10-11T15:15:37.939Z,18.33
2022-10-11T15:18:08.797Z,18.31
2022-10-11T15:20:40.047Z,18.30
2022-10-11T15:23:09.782Z,18.26
2022-10-11T15:25:39.529Z,18.22
2022-10-11T15:28:08.277Z,18.20
2022-10-11T15:30:41.269Z,18.17
2022-10-11T15:33:08.319Z,18.14
2022-10-11T15:35:35.106Z,18.10
2022-10-11T15:38:01.813Z,18.07
2022-10-11T15:40:34.733Z,18.05
2022-10-11T15:43:02.155Z,18.01
2022-10-11T15:45:29.980Z,18.00
2022-10-11T15:47:56.851Z,17.97
2022-10-11T15:50:34.396Z,17.95
2022-10-11T15:53:13.702Z,17.90
2022-10-11T15:55:44.302Z,17.85
2022-10-11T15:58:24.366Z,17.81
2022-10-11T16:00:55.373Z,17.76
2022-10-11T16:03:26.455Z,17.75
2022-10-11T16:05:54.979Z,17.72
2022-10-11T16:08:22.218Z,17.70
2022-10-11T16:10:50.057Z,17.66
2022-10-11T16:13:17.815Z,17.64
2022-10-11T16:15:46.343Z,17.60
2022-10-11T16:18:16.697Z,17.55
2022-10-11T16:20:49.360Z,17.51
2022-10-11T16:23:16.230Z,17.46
2022-10-11T16:25:43.455Z,17.43
2022-10-11T16:28:11.052Z,17.41
2022-10-11T16:30:45.187Z,17.37
2022-10-11T16:33:12.235Z,17.32
2022-10-11T16:35:42.842Z,17.27
2022-10-11T16:38:10.590Z,17.26
2022-10-11T16:40:39.249Z,17.20
2022-10-11T16:43:07.954Z,17.15
2022-10-11T16:45:35.866Z,17.09
2022-10-11T16:48:04.233Z,17.03
2022-10-11T16:50:39.100Z,16.97
2022-10-11T16:53:06.533Z,16.89
2022-10-11T16:55:33.285Z,16.82
2022-10-11T16:58:00.015Z,16.73
2022-10-11T17:00:26.759Z,16.66
2022-10-11T17:02:53.553Z,16.59
2022-10-11T17:05:20.359Z,16.51
2022-10-11T17:07:47.152Z,16.43
2022-10-11T17:10:13.898Z,16.34
2022-10-11T17:12:40.685Z,16.27
2022-10-11T17:15:11.826Z,16.18
2022-10-11T17:17:38.534Z,16.11
2022-10-11T17:20:05.762Z,16.02
2022-10-11T17:22:32.483Z,15.96
2022-10-11T17:25:01.365Z,15.90
2022-10-11T17:27:28.518Z,15.82
2022-10-11T17:29:55.362Z,15.77
2022-10-11T17:32:22.077Z,15.72
2022-10-11T17:34:48.817Z,15.68
2022-10-11T17:37:15.505Z,15.64
2022-10-11T17:39:42.346Z,15.60
2022-10-11T17:42:09.188Z,15.58
2022-10-11T17:44:36.229Z,15.53
2022-10-11T17:47:03.173Z,15.48
2022-10-11T17:49:30.433Z,15.43
2022-10-11T17:51:57.285Z,15.38
2022-10-11T17:54:25.810Z,15.34
2022-10-11T17:56:52.814Z,15.30
2022-10-11T17:59:21.443Z,15.27
2022-10-11T18:01:50.112Z,15.22
2022-10-11T18:04:19.125Z,15.16
2022-10-11T18:06:47.607Z,15.09
2022-10-11T18:09:17.329Z,15.06
2022-10-11T18:11:44.974Z,15.01
2022-10-11T18:14:12.049Z,15.00
2022-10-11T18:16:40.164Z,14.96
2022-10-11T18:19:11.438Z,14.91
2022-10-11T18:21:39.394Z,14.88
2022-10-11T18:24:13.385Z,14.83
2022-10-11T18:26:41.060Z,14.80
2022-10-11T18:29:07.929Z,14.80
2022-10-11T18:31:35.458Z,14.75
2022-10-11T18:34:05.191Z,14.72
2022-10-11T18:36:33.012Z,14.69
2022-10-11T18:39:03.618Z,14.65
2022-10-11T18:41:33.141Z,14.63
2022-10-11T18:44:04.294Z,14.59
2022-10-11T18:46:32.545Z,14.55
2022-10-11T18:49:01.836Z,14.52
2022-10-11T18:51:38.005Z,14.49
2022-10-11T18:54:07.242Z,14.44
2022-10-11T18:56:36.987Z,14.41
2022-10-11T18:59:05.694Z,14.39
2022-10-11T19:01:43.112Z,14.36
2022-10-11T19:04:12.913Z,14.33
2022-10-11T19:06:43.957Z,14.30
2022-10-11T19:09:21.278Z,14.28
2022-10-11T19:11:54.358Z,14.23
2022-10-11T19:14:26.580Z,14.21
2022-10-11T19:16:55.712Z,14.18
2022-10-11T19:19:29.089Z,14.16
2022-10-11T19:21:57.431Z,14.13
2022-10-11T19:24:27.833Z,14.08
2022-10-11T19:27:01.199Z,14.06
2022-10-11T19:29:29.290Z,14.04
2022-10-11T19:31:59.453Z,14.02
2022-10-11T19:34:28.772Z,14.00
2022-10-11T19:36:56.755Z,13.99
2022-10-11T19:39:24.924Z,13.94
2022-10-11T19:41:52.292Z,13.91
2022-10-11T19:44:19.957Z,13.89
2022-10-11T19:46:54.131Z,13.84
2022-10-11T19:49:24.918Z,13.78
2022-10-11T19:51:53.404Z,13.71
2022-10-11T19:54:20.221Z,13.68
2022-10-11T19:56:47.390Z,13.65
2022-10-11T19:59:14.538Z,13.65
2022-10-11T20:01:42.548Z,13.61
2022-10-11T20:04:33.082Z,13.58
2022-10-11T20:06:59.461Z,13.57
2022-10-11T20:09:30.579Z,13.56
2022-10-11T20:11:58.200Z,13.54
2022-10-11T20:14:25.010Z,13.53
2022-10-11T20:16:52.499Z,13.51
2022-10-11T20:19:19.388Z,13.49
2022-10-11T20:21:47.269Z,13.47
2022-10-11T20:24:14.013Z,13.42
2022-10-11T20:26:40.739Z,13.40
2022-10-11T20:29:07.765Z,13.39
2022-10-11T20:31:40.744Z,13.38
2022-10-11T20:34:08.644Z,13.38
2022-10-11T20:36:36.563Z,13.37
2022-10-11T20:39:05.168Z,13.37
2022-10-11T20:41:37.144Z,13.37
2022-10-11T20:44:04.730Z,13.35
2022-10-11T20:46:36.572Z,13.36
2022-10-11T20:49:11.172Z,13.36
2022-10-11T20:51:41.786Z,13.37
2022-10-11T20:54:09.334Z,13.35
2022-10-11T20:56:36.316Z,13.35
2022-10-11T20:59:04.174Z,13.36
2022-10-11T21:01:40.619Z,13.35
2022-10-11T21:04:19.524Z,13.33
2022-10-11T21:06:48.241Z,13.33
2022-10-11T21:09:16.985Z,13.31
2022-10-11T21:11:44.298Z,13.31
2022-10-11T21:14:11.406Z,13.28
2022-10-11T21:16:38.187Z,13.27
2022-10-11T21:19:06.085Z,13.25
2022-10-11T21:21:32.811Z,13.23
2022-10-11T21:24:02.109Z,13.19
2022-10-11T21:26:30.446Z,13.16
2022-10-11T21:28:59.346Z,13.08
2022-10-11T21:31:31.084Z,13.01
2022-10-11T21:34:00.714Z,12.95
2022-10-11T21:36:27.659Z,12.92
2022-10-11T21:38:54.741Z,12.88
2022-10-11T21:41:28.909Z,12.84
2022-10-11T21:43:56.219Z,12.81
2022-10-11T21:46:41.620Z,12.78
2022-10-11T21:49:13.278Z,12.73
2022-10-11T21:51:40.069Z,12.68
2022-10-11T21:54:06.981Z,12.66
2022-10-11T21:56:33.846Z,12.61
2022-10-11T21:59:00.682Z,12.58
2022-10-11T22:01:27.799Z,12.55
2022-10-11T22:03:54.819Z,12.53
2022-10-11T22:06:22.080Z,12.54
2022-10-11T22:08:49.994Z,12.53
2022-10-11T22:11:17.474Z,12.52
2022-10-11T22:13:44.790Z,12.54
2022-10-11T22:16:13.752Z,12.52
2022-10-11T22:18:41.375Z,12.51
2022-10-11T22:21:23.659Z,12.49
2022-10-11T22:23:53.639Z,12.45
2022-10-11T22:26:27.312Z,12.42
2022-10-11T22:28:54.223Z,12.39
2022-10-11T22:31:22.107Z,12.37
2022-10-11T22:33:53.212Z,12.33
2022-10-11T22:36:20.010Z,12.29
2022-10-11T22:38:47.203Z,12.28
2022-10-11T22:41:14.007Z,12.27
2022-10-11T22:43:40.758Z,12.24
2022-10-11T22:46:07.857Z,12.22
2022-10-11T22:48:34.979Z,12.20
2022-10-11T22:51:02.170Z,12.21
2022-10-11T22:53:29.259Z,12.18
2022-10-11T22:55:56.002Z,12.17
2022-10-11T22:58:22.808Z,12.15
2022-10-11T23:00:49.573Z,12.13
2022-10-11T23:03:18.430Z,12.12
2022-10-11T23:05:56.473Z,12.10
2022-10-11T23:08:23.739Z,12.07
2022-10-11T23:10:50.585Z,12.07
2022-10-11T23:13:17.847Z,12.04
2022-10-11T23:15:44.594Z,12.02
2022-10-11T23:18:11.756Z,12.01
2022-10-11T23:20:39.712Z,11.99
2022-10-11T23:23:07.251Z,11.98
2022-10-11T23:25:36.813Z,11.95
2022-10-11T23:28:03.674Z,11.96
2022-10-11T23:30:30.899Z,11.94
2022-10-11T23:32:57.900Z,11.90
2022-10-11T23:35:25.018Z,11.90
2022-10-11T23:37:54.747Z,11.91
2022-10-11T23:40:21.517Z,11.91
2022-10-11T23:42:48.363Z,11.89
2022-10-11T23:45:15.397Z,11.85
2022-10-11T23:47:42.138Z,11.85
2022-10-11T23:50:09.307Z,11.84
2022-10-11T23:52:36.265Z,11.80
2022-10-11T23:55:03.681Z,11.78
2022-10-11T23:57:30.482Z,11.76
2022-10-11T23:59:57.175Z,11.75
